sensor_id;sensor_type;location;lat;lon;timestamp;temperature;humidity
20712;DHT22;10517;50.742;4.224;2023-09-12T00:01:45;20.50;99.90
20712;DHT22;10517;50.742;4.224;2023-09-12T00:04:10;20.40;99.90
20712;DHT22;10517;50.742;4.224;2023-09-12T00:06:37;20.30;99.90
20712;DHT22;10517;50.742;4.224;2023-09-12T00:09:03;20.20;99.90
20712;DHT22;10517;50.742;4.224;2023-09-12T00:11:31;20.10;99.90
20712;DHT22;10517;50.742;4.224;2023-09-12T00:13:57;20.00;99.90
20712;DHT22;10517;50.742;4.224;2023-09-12T00:16:24;20.10;99.90
20712;DHT22;10517;50.742;4.224;2023-09-12T00:18:50;20.20;99.90
20712;DHT22;10517;50.742;4.224;2023-09-12T00:21:16;20.10;99.90
20712;DHT22;10517;50.742;4.224;2023-09-12T00:23:42;20.10;99.90
20712;DHT22;10517;50.742;4.224;2023-09-12T00:26:07;20.10;99.90
20712;DHT22;10517;50.742;4.224;2023-09-12T00:28:33;20.10;99.90
20712;DHT22;10517;50.742;4.224;2023-09-12T00:30:59;20.20;99.90
20712;DHT22;10517;50.742;4.224;2023-09-12T00:33:25;20.20;99.90
20712;DHT22;10517;50.742;4.224;2023-09-12T00:35:51;20.30;99.90
20712;DHT22;10517;50.742;4.224;2023-09-12T00:38:17;20.30;99.90
20712;DHT22;10517;50.742;4.224;2023-09-12T00:40:43;20.30;99.90
20712;DHT22;10517;50.742;4.224;2023-09-12T00:43:08;20.20;99.90
20712;DHT22;10517;50.742;4.224;2023-09-12T00:45:35;20.20;99.90
20712;DHT22;10517;50.742;4.224;2023-09-12T00:48:03;20.20;99.90
20712;DHT22;10517;50.742;4.224;2023-09-12T00:50:31;20.10;99.90
20712;DHT22;10517;50.742;4.224;2023-09-12T00:52:57;20.10;99.90
20712;DHT22;10517;50.742;4.224;2023-09-12T00:55:24;20.10;99.90
20712;DHT22;10517;50.742;4.224;2023-09-12T00:57:51;20.10;99.90
20712;DHT22;10517;50.742;4.224;2023-09-12T01:00:18;20.10;99.90
20712;DHT22;10517;50.742;4.224;2023-09-12T01:02:46;20.10;99.90
20712;DHT22;10517;50.742;4.224;2023-09-12T01:05:13;20.00;99.90
20712;DHT22;10517;50.742;4.224;2023-09-12T01:07:41;20.00;99.90
20712;DHT22;10517;50.742;4.224;2023-09-12T01:10:08;20.00;99.90
20712;DHT22;10517;50.742;4.224;2023-09-12T01:12:34;20.00;99.90
20712;DHT22;10517;50.742;4.224;2023-09-12T01:15:00;20.10;99.90
20712;DHT22;10517;50.742;4.224;2023-09-12T01:17:27;20.10;99.90
20712;DHT22;10517;50.742;4.224;2023-09-12T01:19:53;20.10;99.90
20712;DHT22;10517;50.742;4.224;2023-09-12T01:27:52;20.10;99.90
20712;DHT22;10517;50.742;4.224;2023-09-12T01:30:21;20.00;99.90
20712;DHT22;10517;50.742;4.224;2023-09-12T01:32:48;20.10;99.90
20712;DHT22;10517;50.742;4.224;2023-09-12T01:35:15;20.10;99.90
20712;DHT22;10517;50.742;4.224;2023-09-12T01:37:41;20.00;99.90
20712;DHT22;10517;50.742;4.224;2023-09-12T01:40:07;20.00;99.90
20712;DHT22;10517;50.742;4.224;2023-09-12T01:42:45;20.00;99.90
20712;DHT22;10517;50.742;4.224;2023-09-12T01:45:16;20.10;99.90
20712;DHT22;10517;50.742;4.224;2023-09-12T01:47:45;20.10;99.90
20712;DHT22;10517;50.742;4.224;2023-09-12T01:50:12;20.10;99.90
20712;DHT22;10517;50.742;4.224;2023-09-12T01:52:40;20.00;99.90
20712;DHT22;10517;50.742;4.224;2023-09-12T01:55:07;20.00;99.90
20712;DHT22;10517;50.742;4.224;2023-09-12T01:57:35;19.90;99.90
20712;DHT22;10517;50.742;4.224;2023-09-12T02:00:01;19.80;99.90
20712;DHT22;10517;50.742;4.224;2023-09-12T02:02:27;19.90;99.90
20712;DHT22;10517;50.742;4.224;2023-09-12T02:05:10;19.90;99.90
20712;DHT22;10517;50.742;4.224;2023-09-12T02:07:38;20.10;99.90
20712;DHT22;10517;50.742;4.224;2023-09-12T02:10:05;20.10;99.90
20712;DHT22;10517;50.742;4.224;2023-09-12T02:12:31;20.20;99.90
20712;DHT22;10517;50.742;4.224;2023-09-12T02:14:57;20.20;99.90
20712;DHT22;10517;50.742;4.224;2023-09-12T02:17:23;20.20;99.90
20712;DHT22;10517;50.742;4.224;2023-09-12T02:19:49;20.20;99.90
20712;DHT22;10517;50.742;4.224;2023-09-12T02:22:15;20.00;99.90
20712;DHT22;10517;50.742;4.224;2023-09-12T02:24:41;19.90;99.90
20712;DHT22;10517;50.742;4.224;2023-09-12T02:27:06;19.90;99.90
20712;DHT22;10517;50.742;4.224;2023-09-12T02:29:32;19.80;99.90
20712;DHT22;10517;50.742;4.224;2023-09-12T02:31:58;19.80;99.90
20712;DHT22;10517;50.742;4.224;2023-09-12T02:34:24;19.70;99.90
20712;DHT22;10517;50.742;4.224;2023-09-12T02:36:50;19.70;99.90
20712;DHT22;10517;50.742;4.224;2023-09-12T02:39:15;19.80;99.90
20712;DHT22;10517;50.742;4.224;2023-09-12T02:41:41;19.80;99.90
20712;DHT22;10517;50.742;4.224;2023-09-12T02:44:07;19.80;99.90
20712;DHT22;10517;50.742;4.224;2023-09-12T02:46:33;19.80;99.90
20712;DHT22;10517;50.742;4.224;2023-09-12T02:48:59;19.90;99.90
20712;DHT22;10517;50.742;4.224;2023-09-12T02:51:28;20.00;99.90
20712;DHT22;10517;50.742;4.224;2023-09-12T02:53:54;20.00;99.90
20712;DHT22;10517;50.742;4.224;2023-09-12T02:56:20;20.10;99.90
20712;DHT22;10517;50.742;4.224;2023-09-12T02:58:46;20.20;99.90
20712;DHT22;10517;50.742;4.224;2023-09-12T03:01:19;20.10;99.90
20712;DHT22;10517;50.742;4.224;2023-09-12T03:03:46;20.10;99.90
20712;DHT22;10517;50.742;4.224;2023-09-12T03:06:12;20.10;99.90
20712;DHT22;10517;50.742;4.224;2023-09-12T03:08:39;20.20;99.90
20712;DHT22;10517;50.742;4.224;2023-09-12T03:11:05;20.20;99.90
20712;DHT22;10517;50.742;4.224;2023-09-12T03:13:33;20.30;99.90
20712;DHT22;10517;50.742;4.224;2023-09-12T03:15:59;20.30;99.90
20712;DHT22;10517;50.742;4.224;2023-09-12T03:18:25;20.30;99.90
20712;DHT22;10517;50.742;4.224;2023-09-12T03:20:51;20.40;99.90
20712;DHT22;10517;50.742;4.224;2023-09-12T03:23:17;20.30;99.90
20712;DHT22;10517;50.742;4.224;2023-09-12T03:25:42;20.30;99.90
20712;DHT22;10517;50.742;4.224;2023-09-12T03:28:08;20.30;99.90
20712;DHT22;10517;50.742;4.224;2023-09-12T03:30:35;20.40;99.90
20712;DHT22;10517;50.742;4.224;2023-09-12T03:33:02;20.40;99.90
20712;DHT22;10517;50.742;4.224;2023-09-12T03:35:34;20.40;99.90
20712;DHT22;10517;50.742;4.224;2023-09-12T03:38:00;20.40;99.90
20712;DHT22;10517;50.742;4.224;2023-09-12T03:40:31;20.30;99.90
20712;DHT22;10517;50.742;4.224;2023-09-12T03:42:57;20.40;99.90
20712;DHT22;10517;50.742;4.224;2023-09-12T03:45:24;20.40;99.90
20712;DHT22;10517;50.742;4.224;2023-09-12T03:47:50;20.40;99.90
20712;DHT22;10517;50.742;4.224;2023-09-12T03:50:16;20.50;99.90
20712;DHT22;10517;50.742;4.224;2023-09-12T03:52:42;20.40;99.90
20712;DHT22;10517;50.742;4.224;2023-09-12T03:55:08;20.40;99.90
20712;DHT22;10517;50.742;4.224;2023-09-12T03:57:34;20.40;99.90
20712;DHT22;10517;50.742;4.224;2023-09-12T04:00:00;20.30;99.90
20712;DHT22;10517;50.742;4.224;2023-09-12T04:02:26;20.40;99.90
20712;DHT22;10517;50.742;4.224;2023-09-12T04:04:52;20.40;99.90
20712;DHT22;10517;50.742;4.224;2023-09-12T04:07:18;20.40;99.90
20712;DHT22;10517;50.742;4.224;2023-09-12T04:09:44;20.40;99.90
20712;DHT22;10517;50.742;4.224;2023-09-12T04:12:09;20.40;99.90
20712;DHT22;10517;50.742;4.224;2023-09-12T04:14:35;20.30;99.90
20712;DHT22;10517;50.742;4.224;2023-09-12T04:17:01;20.30;99.90
20712;DHT22;10517;50.742;4.224;2023-09-12T04:19:28;20.30;99.90
20712;DHT22;10517;50.742;4.224;2023-09-12T04:21:53;20.20;99.90
20712;DHT22;10517;50.742;4.224;2023-09-12T04:24:19;20.20;99.90
20712;DHT22;10517;50.742;4.224;2023-09-12T04:26:46;20.10;99.90
20712;DHT22;10517;50.742;4.224;2023-09-12T04:29:12;20.20;99.90
20712;DHT22;10517;50.742;4.224;2023-09-12T04:31:37;20.10;99.90
20712;DHT22;10517;50.742;4.224;2023-09-12T04:34:03;20.10;99.90
20712;DHT22;10517;50.742;4.224;2023-09-12T04:36:30;20.10;99.90
20712;DHT22;10517;50.742;4.224;2023-09-12T04:38:56;20.10;99.90
20712;DHT22;10517;50.742;4.224;2023-09-12T04:41:21;20.10;99.90
20712;DHT22;10517;50.742;4.224;2023-09-12T04:43:47;19.90;99.90
20712;DHT22;10517;50.742;4.224;2023-09-12T04:46:13;19.90;99.90
20712;DHT22;10517;50.742;4.224;2023-09-12T04:48:39;19.80;99.90
20712;DHT22;10517;50.742;4.224;2023-09-12T04:51:05;19.70;99.90
20712;DHT22;10517;50.742;4.224;2023-09-12T04:53:31;19.70;99.90
20712;DHT22;10517;50.742;4.224;2023-09-12T04:56:03;19.70;99.90
20712;DHT22;10517;50.742;4.224;2023-09-12T04:58:29;19.70;99.90
20712;DHT22;10517;50.742;4.224;2023-09-12T05:00:55;19.70;99.90
20712;DHT22;10517;50.742;4.224;2023-09-12T05:03:22;19.60;99.90
20712;DHT22;10517;50.742;4.224;2023-09-12T05:05:49;19.60;99.90
20712;DHT22;10517;50.742;4.224;2023-09-12T05:08:17;19.70;99.90
20712;DHT22;10517;50.742;4.224;2023-09-12T05:10:47;19.60;99.90
20712;DHT22;10517;50.742;4.224;2023-09-12T05:13:13;19.60;99.90
20712;DHT22;10517;50.742;4.224;2023-09-12T05:15:41;19.60;99.90
20712;DHT22;10517;50.742;4.224;2023-09-12T05:18:07;19.50;99.90
20712;DHT22;10517;50.742;4.224;2023-09-12T05:20:33;19.40;99.90
20712;DHT22;10517;50.742;4.224;2023-09-12T05:22:59;19.30;99.90
20712;DHT22;10517;50.742;4.224;2023-09-12T05:25:25;19.20;99.90
20712;DHT22;10517;50.742;4.224;2023-09-12T05:27:52;19.20;99.90
20712;DHT22;10517;50.742;4.224;2023-09-12T05:30:18;19.30;99.90
20712;DHT22;10517;50.742;4.224;2023-09-12T05:32:44;19.30;99.90
20712;DHT22;10517;50.742;4.224;2023-09-12T05:35:10;19.30;99.90
20712;DHT22;10517;50.742;4.224;2023-09-12T05:37:35;19.30;99.90
20712;DHT22;10517;50.742;4.224;2023-09-12T05:40:01;19.30;99.90
20712;DHT22;10517;50.742;4.224;2023-09-12T05:42:27;19.30;99.90
20712;DHT22;10517;50.742;4.224;2023-09-12T05:44:53;19.30;99.90
20712;DHT22;10517;50.742;4.224;2023-09-12T05:47:19;19.20;99.90
20712;DHT22;10517;50.742;4.224;2023-09-12T05:49:45;19.20;99.90
20712;DHT22;10517;50.742;4.224;2023-09-12T05:52:11;19.20;99.90
20712;DHT22;10517;50.742;4.224;2023-09-12T05:54:37;19.20;99.90
20712;DHT22;10517;50.742;4.224;2023-09-12T05:57:03;19.30;99.90
20712;DHT22;10517;50.742;4.224;2023-09-12T05:59:29;19.30;99.90
20712;DHT22;10517;50.742;4.224;2023-09-12T06:01:55;19.40;99.90
20712;DHT22;10517;50.742;4.224;2023-09-12T06:04:21;19.30;99.90
20712;DHT22;10517;50.742;4.224;2023-09-12T06:06:47;19.30;99.90
20712;DHT22;10517;50.742;4.224;2023-09-12T06:09:13;19.40;99.90
20712;DHT22;10517;50.742;4.224;2023-09-12T06:11:38;19.40;99.90
20712;DHT22;10517;50.742;4.224;2023-09-12T06:14:04;19.50;99.90
20712;DHT22;10517;50.742;4.224;2023-09-12T06:16:30;19.50;99.90
20712;DHT22;10517;50.742;4.224;2023-09-12T06:18:56;19.60;99.90
20712;DHT22;10517;50.742;4.224;2023-09-12T06:21:22;19.60;99.90
20712;DHT22;10517;50.742;4.224;2023-09-12T06:23:55;19.40;99.90
20712;DHT22;10517;50.742;4.224;2023-09-12T06:26:33;19.40;99.90
20712;DHT22;10517;50.742;4.224;2023-09-12T06:28:59;19.40;99.90
20712;DHT22;10517;50.742;4.224;2023-09-12T06:31:24;19.50;99.90
20712;DHT22;10517;50.742;4.224;2023-09-12T06:33:50;19.70;99.90
20712;DHT22;10517;50.742;4.224;2023-09-12T06:36:16;19.80;99.90
20712;DHT22;10517;50.742;4.224;2023-09-12T06:38:42;20.00;99.90
20712;DHT22;10517;50.742;4.224;2023-09-12T06:41:07;20.00;99.90
20712;DHT22;10517;50.742;4.224;2023-09-12T06:43:33;20.10;99.90
20712;DHT22;10517;50.742;4.224;2023-09-12T06:45:59;20.00;99.90
20712;DHT22;10517;50.742;4.224;2023-09-12T06:48:25;20.20;99.90
20712;DHT22;10517;50.742;4.224;2023-09-12T06:50:50;20.30;99.90
20712;DHT22;10517;50.742;4.224;2023-09-12T06:53:16;20.50;99.90
20712;DHT22;10517;50.742;4.224;2023-09-12T06:55:42;20.60;99.90
20712;DHT22;10517;50.742;4.224;2023-09-12T06:58:08;20.60;99.90
20712;DHT22;10517;50.742;4.224;2023-09-12T07:00:33;20.60;99.90
20712;DHT22;10517;50.742;4.224;2023-09-12T07:02:59;20.70;99.90
20712;DHT22;10517;50.742;4.224;2023-09-12T07:05:25;20.90;99.90
20712;DHT22;10517;50.742;4.224;2023-09-12T07:07:52;20.70;99.90
20712;DHT22;10517;50.742;4.224;2023-09-12T07:10:18;20.30;99.90
20712;DHT22;10517;50.742;4.224;2023-09-12T07:12:44;20.20;99.90
20712;DHT22;10517;50.742;4.224;2023-09-12T07:15:10;20.30;99.90
20712;DHT22;10517;50.742;4.224;2023-09-12T07:17:36;20.40;99.90
20712;DHT22;10517;50.742;4.224;2023-09-12T07:20:01;20.40;99.90
20712;DHT22;10517;50.742;4.224;2023-09-12T07:22:28;20.60;99.90
20712;DHT22;10517;50.742;4.224;2023-09-12T07:24:54;20.80;99.90
20712;DHT22;10517;50.742;4.224;2023-09-12T07:27:20;20.70;99.90
20712;DHT22;10517;50.742;4.224;2023-09-12T07:29:45;20.70;99.90
20712;DHT22;10517;50.742;4.224;2023-09-12T07:32:11;20.90;99.90
20712;DHT22;10517;50.742;4.224;2023-09-12T07:34:37;21.10;99.90
20712;DHT22;10517;50.742;4.224;2023-09-12T07:37:03;21.30;99.90
20712;DHT22;10517;50.742;4.224;2023-09-12T07:39:29;21.60;99.90
20712;DHT22;10517;50.742;4.224;2023-09-12T07:41:55;21.90;99.90
20712;DHT22;10517;50.742;4.224;2023-09-12T07:44:20;21.90;99.90
20712;DHT22;10517;50.742;4.224;2023-09-12T07:46:46;22.10;99.90
20712;DHT22;10517;50.742;4.224;2023-09-12T07:49:12;22.20;99.90
20712;DHT22;10517;50.742;4.224;2023-09-12T07:51:38;22.30;99.90
20712;DHT22;10517;50.742;4.224;2023-09-12T07:54:03;22.30;99.90
20712;DHT22;10517;50.742;4.224;2023-09-12T07:56:29;22.10;99.90
20712;DHT22;10517;50.742;4.224;2023-09-12T07:58:57;22.10;99.90
20712;DHT22;10517;50.742;4.224;2023-09-12T08:01:23;22.30;99.90
20712;DHT22;10517;50.742;4.224;2023-09-12T08:03:48;22.40;99.90
20712;DHT22;10517;50.742;4.224;2023-09-12T08:06:14;22.30;99.90
20712;DHT22;10517;50.742;4.224;2023-09-12T08:08:40;22.30;99.90
20712;DHT22;10517;50.742;4.224;2023-09-12T08:11:06;22.30;99.90
20712;DHT22;10517;50.742;4.224;2023-09-12T08:13:31;22.40;99.90
20712;DHT22;10517;50.742;4.224;2023-09-12T08:15:57;22.50;99.90
20712;DHT22;10517;50.742;4.224;2023-09-12T08:18:28;22.60;99.90
20712;DHT22;10517;50.742;4.224;2023-09-12T08:20:54;22.50;99.90
20712;DHT22;10517;50.742;4.224;2023-09-12T08:23:20;22.60;99.90
20712;DHT22;10517;50.742;4.224;2023-09-12T08:25:45;22.40;99.90
20712;DHT22;10517;50.742;4.224;2023-09-12T08:28:11;22.50;99.90
20712;DHT22;10517;50.742;4.224;2023-09-12T08:30:37;22.50;99.90
20712;DHT22;10517;50.742;4.224;2023-09-12T08:33:03;22.50;99.90
20712;DHT22;10517;50.742;4.224;2023-09-12T08:35:29;22.60;99.90
20712;DHT22;10517;50.742;4.224;2023-09-12T08:37:55;22.60;99.90
20712;DHT22;10517;50.742;4.224;2023-09-12T08:40:21;22.70;99.90
20712;DHT22;10517;50.742;4.224;2023-09-12T08:42:47;22.60;99.90
20712;DHT22;10517;50.742;4.224;2023-09-12T08:45:15;22.70;99.90
20712;DHT22;10517;50.742;4.224;2023-09-12T08:47:49;22.90;99.90
20712;DHT22;10517;50.742;4.224;2023-09-12T08:50:16;23.10;99.90
20712;DHT22;10517;50.742;4.224;2023-09-12T08:52:43;23.10;99.90
20712;DHT22;10517;50.742;4.224;2023-09-12T08:55:10;23.30;99.90
20712;DHT22;10517;50.742;4.224;2023-09-12T08:57:43;23.40;99.90
20712;DHT22;10517;50.742;4.224;2023-09-12T09:00:09;23.50;99.90
20712;DHT22;10517;50.742;4.224;2023-09-12T09:02:43;23.50;99.90
20712;DHT22;10517;50.742;4.224;2023-09-12T09:05:11;23.70;99.90
20712;DHT22;10517;50.742;4.224;2023-09-12T09:07:42;23.80;99.90
20712;DHT22;10517;50.742;4.224;2023-09-12T09:10:14;24.10;99.90
20712;DHT22;10517;50.742;4.224;2023-09-12T09:12:42;24.10;99.90
20712;DHT22;10517;50.742;4.224;2023-09-12T09:15:27;24.30;99.90
20712;DHT22;10517;50.742;4.224;2023-09-12T09:17:54;24.50;99.90
20712;DHT22;10517;50.742;4.224;2023-09-12T09:20:31;24.60;99.90
20712;DHT22;10517;50.742;4.224;2023-09-12T09:23:04;24.50;99.90
20712;DHT22;10517;50.742;4.224;2023-09-12T09:25:41;24.80;99.90
20712;DHT22;10517;50.742;4.224;2023-09-12T09:28:20;24.80;99.90
20712;DHT22;10517;50.742;4.224;2023-09-12T09:30:50;24.30;99.90
20712;DHT22;10517;50.742;4.224;2023-09-12T09:33:18;24.30;99.90
20712;DHT22;10517;50.742;4.224;2023-09-12T09:35:48;24.30;99.90
20712;DHT22;10517;50.742;4.224;2023-09-12T09:38:15;24.40;99.90
20712;DHT22;10517;50.742;4.224;2023-09-12T09:40:44;24.50;99.90
20712;DHT22;10517;50.742;4.224;2023-09-12T09:43:11;24.50;99.90
20712;DHT22;10517;50.742;4.224;2023-09-12T09:45:44;23.90;99.90
20712;DHT22;10517;50.742;4.224;2023-09-12T09:48:10;23.70;99.90
20712;DHT22;10517;50.742;4.224;2023-09-12T09:50:42;23.80;99.90
20712;DHT22;10517;50.742;4.224;2023-09-12T09:53:08;23.90;99.90
20712;DHT22;10517;50.742;4.224;2023-09-12T09:55:35;24.10;99.90
20712;DHT22;10517;50.742;4.224;2023-09-12T09:58:02;24.30;99.90
20712;DHT22;10517;50.742;4.224;2023-09-12T10:00:29;24.50;99.90
20712;DHT22;10517;50.742;4.224;2023-09-12T10:02:56;24.50;99.90
20712;DHT22;10517;50.742;4.224;2023-09-12T10:05:22;24.70;99.90
20712;DHT22;10517;50.742;4.224;2023-09-12T10:07:50;24.80;99.90
20712;DHT22;10517;50.742;4.224;2023-09-12T10:10:17;24.80;99.90
20712;DHT22;10517;50.742;4.224;2023-09-12T10:12:49;25.00;99.90
20712;DHT22;10517;50.742;4.224;2023-09-12T10:15:19;25.30;99.90
20712;DHT22;10517;50.742;4.224;2023-09-12T10:17:51;25.60;99.90
20712;DHT22;10517;50.742;4.224;2023-09-12T10:20:21;25.90;99.90
20712;DHT22;10517;50.742;4.224;2023-09-12T10:26:03;26.60;99.90
20712;DHT22;10517;50.742;4.224;2023-09-12T10:28:30;26.60;99.90
20712;DHT22;10517;50.742;4.224;2023-09-12T10:30:57;26.00;99.90
20712;DHT22;10517;50.742;4.224;2023-09-12T10:33:24;25.10;99.90
20712;DHT22;10517;50.742;4.224;2023-09-12T10:35:52;24.90;99.90
20712;DHT22;10517;50.742;4.224;2023-09-12T10:38:21;24.80;99.90
20712;DHT22;10517;50.742;4.224;2023-09-12T10:40:48;24.90;99.90
20712;DHT22;10517;50.742;4.224;2023-09-12T10:43:15;25.20;99.90
20712;DHT22;10517;50.742;4.224;2023-09-12T10:45:43;25.30;99.90
20712;DHT22;10517;50.742;4.224;2023-09-12T10:48:10;25.50;99.90
20712;DHT22;10517;50.742;4.224;2023-09-12T10:50:37;24.90;99.90
20712;DHT22;10517;50.742;4.224;2023-09-12T10:53:14;24.60;99.90
20712;DHT22;10517;50.742;4.224;2023-09-12T10:55:58;24.50;99.90
20712;DHT22;10517;50.742;4.224;2023-09-12T10:58:24;24.80;99.90
20712;DHT22;10517;50.742;4.224;2023-09-12T11:01:21;25.10;99.90
20712;DHT22;10517;50.742;4.224;2023-09-12T11:03:47;25.30;99.90
20712;DHT22;10517;50.742;4.224;2023-09-12T11:06:30;25.50;99.90
20712;DHT22;10517;50.742;4.224;2023-09-12T11:11:43;25.90;99.90
20712;DHT22;10517;50.742;4.224;2023-09-12T11:14:10;25.80;99.90
20712;DHT22;10517;50.742;4.224;2023-09-12T11:16:36;25.70;99.90
20712;DHT22;10517;50.742;4.224;2023-09-12T11:19:17;25.50;99.90
20712;DHT22;10517;50.742;4.224;2023-09-12T11:21:46;25.40;99.90
20712;DHT22;10517;50.742;4.224;2023-09-12T11:24:12;25.30;99.90
20712;DHT22;10517;50.742;4.224;2023-09-12T11:26:57;25.50;99.90
20712;DHT22;10517;50.742;4.224;2023-09-12T11:29:34;25.80;99.90
20712;DHT22;10517;50.742;4.224;2023-09-12T11:32:01;26.00;99.90
20712;DHT22;10517;50.742;4.224;2023-09-12T11:34:40;26.50;99.90
20712;DHT22;10517;50.742;4.224;2023-09-12T11:37:06;26.70;99.90
20712;DHT22;10517;50.742;4.224;2023-09-12T11:39:34;26.70;99.90
20712;DHT22;10517;50.742;4.224;2023-09-12T11:42:02;27.00;99.90
20712;DHT22;10517;50.742;4.224;2023-09-12T11:44:29;26.80;99.90
20712;DHT22;10517;50.742;4.224;2023-09-12T11:46:59;26.50;99.90
20712;DHT22;10517;50.742;4.224;2023-09-12T11:49:39;26.40;99.90
20712;DHT22;10517;50.742;4.224;2023-09-12T11:52:13;26.10;99.90
20712;DHT22;10517;50.742;4.224;2023-09-12T11:54:44;26.30;99.90
20712;DHT22;10517;50.742;4.224;2023-09-12T11:57:13;26.90;99.90
20712;DHT22;10517;50.742;4.224;2023-09-12T11:59:40;27.30;99.90
20712;DHT22;10517;50.742;4.224;2023-09-12T12:02:09;27.60;99.90
20712;DHT22;10517;50.742;4.224;2023-09-12T12:04:36;27.80;99.90
20712;DHT22;10517;50.742;4.224;2023-09-12T12:07:03;27.90;99.90
20712;DHT22;10517;50.742;4.224;2023-09-12T12:09:33;28.40;99.90
20712;DHT22;10517;50.742;4.224;2023-09-12T12:12:12;28.80;99.90
20712;DHT22;10517;50.742;4.224;2023-09-12T12:14:39;28.80;99.90
20712;DHT22;10517;50.742;4.224;2023-09-12T12:17:11;28.80;99.90
20712;DHT22;10517;50.742;4.224;2023-09-12T12:19:38;28.10;99.90
20712;DHT22;10517;50.742;4.224;2023-09-12T12:22:06;27.80;99.90
20712;DHT22;10517;50.742;4.224;2023-09-12T12:24:41;27.30;99.90
20712;DHT22;10517;50.742;4.224;2023-09-12T12:27:09;26.60;99.90
20712;DHT22;10517;50.742;4.224;2023-09-12T12:29:37;26.20;99.90
20712;DHT22;10517;50.742;4.224;2023-09-12T12:32:05;25.90;99.90
20712;DHT22;10517;50.742;4.224;2023-09-12T12:34:31;25.90;99.90
20712;DHT22;10517;50.742;4.224;2023-09-12T12:36:57;26.10;99.90
20712;DHT22;10517;50.742;4.224;2023-09-12T12:39:23;26.30;99.90
20712;DHT22;10517;50.742;4.224;2023-09-12T12:41:52;26.40;99.90
20712;DHT22;10517;50.742;4.224;2023-09-12T12:44:18;26.20;99.90
20712;DHT22;10517;50.742;4.224;2023-09-12T12:46:54;25.90;99.90
20712;DHT22;10517;50.742;4.224;2023-09-12T12:49:20;26.10;99.90
20712;DHT22;10517;50.742;4.224;2023-09-12T12:51:47;26.40;99.90
20712;DHT22;10517;50.742;4.224;2023-09-12T12:54:13;26.60;99.90
20712;DHT22;10517;50.742;4.224;2023-09-12T12:56:40;26.60;99.90
20712;DHT22;10517;50.742;4.224;2023-09-12T12:59:07;26.90;99.90
20712;DHT22;10517;50.742;4.224;2023-09-12T13:01:38;26.90;99.90
20712;DHT22;10517;50.742;4.224;2023-09-12T13:04:08;26.60;99.90
20712;DHT22;10517;50.742;4.224;2023-09-12T13:06:34;26.40;99.90
20712;DHT22;10517;50.742;4.224;2023-09-12T13:09:04;26.20;99.90
20712;DHT22;10517;50.742;4.224;2023-09-12T13:11:32;25.90;99.90
20712;DHT22;10517;50.742;4.224;2023-09-12T13:14:01;25.80;99.90
20712;DHT22;10517;50.742;4.224;2023-09-12T13:16:28;25.80;99.90
20712;DHT22;10517;50.742;4.224;2023-09-12T13:18:55;25.70;99.90
20712;DHT22;10517;50.742;4.224;2023-09-12T13:21:21;25.60;99.90
20712;DHT22;10517;50.742;4.224;2023-09-12T13:23:46;25.70;99.90
20712;DHT22;10517;50.742;4.224;2023-09-12T13:26:13;25.60;99.90
20712;DHT22;10517;50.742;4.224;2023-09-12T13:28:38;25.50;99.90
20712;DHT22;10517;50.742;4.224;2023-09-12T13:31:04;25.40;99.90
20712;DHT22;10517;50.742;4.224;2023-09-12T13:33:30;25.10;99.90
20712;DHT22;10517;50.742;4.224;2023-09-12T13:35:56;24.90;99.90
20712;DHT22;10517;50.742;4.224;2023-09-12T13:38:22;24.90;99.90
20712;DHT22;10517;50.742;4.224;2023-09-12T13:40:49;25.00;99.90
20712;DHT22;10517;50.742;4.224;2023-09-12T13:43:14;25.40;99.90
20712;DHT22;10517;50.742;4.224;2023-09-12T13:45:40;25.40;99.90
20712;DHT22;10517;50.742;4.224;2023-09-12T13:48:07;25.40;99.90
20712;DHT22;10517;50.742;4.224;2023-09-12T13:50:33;25.50;99.90
20712;DHT22;10517;50.742;4.224;2023-09-12T13:53:01;25.70;99.90
20712;DHT22;10517;50.742;4.224;2023-09-12T13:55:35;25.90;99.90
20712;DHT22;10517;50.742;4.224;2023-09-12T13:58:05;26.00;99.90
20712;DHT22;10517;50.742;4.224;2023-09-12T14:00:32;25.80;99.90
20712;DHT22;10517;50.742;4.224;2023-09-12T14:02:58;25.80;99.90
20712;DHT22;10517;50.742;4.224;2023-09-12T14:05:24;25.60;99.90
20712;DHT22;10517;50.742;4.224;2023-09-12T14:07:51;25.10;99.90
20712;DHT22;10517;50.742;4.224;2023-09-12T14:10:17;24.80;99.90
20712;DHT22;10517;50.742;4.224;2023-09-12T14:12:43;24.70;99.90
20712;DHT22;10517;50.742;4.224;2023-09-12T14:15:11;24.80;99.90
20712;DHT22;10517;50.742;4.224;2023-09-12T14:17:37;24.80;99.90
20712;DHT22;10517;50.742;4.224;2023-09-12T14:20:03;24.70;99.90
20712;DHT22;10517;50.742;4.224;2023-09-12T14:22:29;24.50;99.90
20712;DHT22;10517;50.742;4.224;2023-09-12T14:24:55;24.50;99.90
20712;DHT22;10517;50.742;4.224;2023-09-12T14:27:21;24.30;99.90
20712;DHT22;10517;50.742;4.224;2023-09-12T14:29:46;24.20;99.90
20712;DHT22;10517;50.742;4.224;2023-09-12T14:32:14;24.10;99.90
20712;DHT22;10517;50.742;4.224;2023-09-12T14:34:40;24.10;99.90
20712;DHT22;10517;50.742;4.224;2023-09-12T14:37:06;24.10;99.90
20712;DHT22;10517;50.742;4.224;2023-09-12T14:39:33;24.20;99.90
20712;DHT22;10517;50.742;4.224;2023-09-12T14:41:59;24.30;99.90
20712;DHT22;10517;50.742;4.224;2023-09-12T14:44:27;24.20;99.90
20712;DHT22;10517;50.742;4.224;2023-09-12T14:46:54;24.30;99.90
20712;DHT22;10517;50.742;4.224;2023-09-12T14:49:20;24.50;99.90
20712;DHT22;10517;50.742;4.224;2023-09-12T14:51:46;24.40;99.90
20712;DHT22;10517;50.742;4.224;2023-09-12T14:54:12;24.20;99.90
20712;DHT22;10517;50.742;4.224;2023-09-12T14:56:38;24.10;99.90
20712;DHT22;10517;50.742;4.224;2023-09-12T14:59:04;23.80;99.90
20712;DHT22;10517;50.742;4.224;2023-09-12T15:01:30;23.60;99.90
20712;DHT22;10517;50.742;4.224;2023-09-12T15:03:56;23.50;99.90
20712;DHT22;10517;50.742;4.224;2023-09-12T15:06:22;23.50;99.90
20712;DHT22;10517;50.742;4.224;2023-09-12T15:08:51;23.40;99.90
20712;DHT22;10517;50.742;4.224;2023-09-12T15:11:17;23.40;99.90
20712;DHT22;10517;50.742;4.224;2023-09-12T15:13:43;23.50;99.90
20712;DHT22;10517;50.742;4.224;2023-09-12T15:16:11;23.70;99.90
20712;DHT22;10517;50.742;4.224;2023-09-12T15:18:37;23.60;99.90
20712;DHT22;10517;50.742;4.224;2023-09-12T15:21:05;23.70;99.90
20712;DHT22;10517;50.742;4.224;2023-09-12T15:23:31;23.70;99.90
20712;DHT22;10517;50.742;4.224;2023-09-12T15:25:57;23.70;99.90
20712;DHT22;10517;50.742;4.224;2023-09-12T15:28:23;23.70;99.90
20712;DHT22;10517;50.742;4.224;2023-09-12T15:30:49;23.60;99.90
20712;DHT22;10517;50.742;4.224;2023-09-12T15:33:15;23.40;99.90
20712;DHT22;10517;50.742;4.224;2023-09-12T15:35:41;23.30;99.90
20712;DHT22;10517;50.742;4.224;2023-09-12T15:38:06;23.20;99.90
20712;DHT22;10517;50.742;4.224;2023-09-12T15:40:32;23.30;99.90
20712;DHT22;10517;50.742;4.224;2023-09-12T15:42:59;23.30;99.90